M I D A S
Marine Information and Data Acquisition System
Tripno 725 of the Zeeleeuw from 2004-05-28 07:30:34 to 2004-05-28 13:58:28
Back to CruiseResearch ActivitiesStationsMapUnderway DataData graphs

EquipmentUnitsComment
TimeDGPSUTC
LatitudeDGPSDM.mWGS84
LongitudeDGPSDM.mWGS84
HeadingGyrodeg 
SOGDGPSknotsSpeed over ground
COGDGPSdegCourse over ground
DepthEcho soundermeters200 kHz
Missing or incorrect values are displayed as -999
Navigation data collected by the RV Zeeleeuw from 2004-05-28 07:30:34 to 2004-05-28 13:58:28
Time Latitude Longitude Heading SOG COG Depth
2004-05-28 07:31:50 51°9.137 2°34.731 278.1 2.4 292 18
2004-05-28 07:32:50 51°9.149 2°34.671 272.7 2.4 288 43.5
2004-05-28 07:33:50 51°9.159 2°34.612 265.3 2.2 281 50.7
2004-05-28 07:34:49 51°9.156 2°34.555 253.3 2.3 262 18.4
2004-05-28 07:35:54 51°9.147 2°34.488 249.4 2.5 253 18.6
2004-05-28 07:36:58 51°9.136 2°34.419 249.6 2.6 256 18.3
2004-05-28 07:38:13 51°9.122 2°34.338 249.4 2.5 255 18.7
2004-05-28 07:39:13 51°9.111 2°34.269 250.5 2.8 256 18
2004-05-28 07:40:12 51°9.099 2°34.195 249.6 2.9 254 18.4
2004-05-28 07:41:13 51°9.084 2°34.119 247.9 3 251 18.7
2004-05-28 07:42:20 51°9.069 2°34.035 250 2.9 257 18.8
2004-05-28 07:43:20 51°9.057 2°33.963 248.6 2.8 255 18.2
2004-05-28 07:44:21 51°9.044 2°33.89 249.4 2.8 255 18.5
2004-05-28 07:45:27 51°9.031 2°33.81 249.4 2.8 253 18.8
2004-05-28 07:46:33 51°9.019 2°33.731 250 2.8 254 19.4
2004-05-28 07:47:33 51°9.005 2°33.664 242.9 2.6 244 19.7
2004-05-28 07:48:30 51°8.986 2°33.604 240.3 2.7 245 19.6
2004-05-28 07:49:34 51°8.965 2°33.536 240.4 2.7 243 19.6
2004-05-28 07:50:39 51°8.943 2°33.466 241.8 2.7 243 19.7
2004-05-28 07:51:38 51°8.925 2°33.401 243.1 2.7 246 19.7
2004-05-28 07:52:38 51°8.907 2°33.334 243 2.8 246 19.8
2004-05-28 07:53:39 51°8.888 2°33.266 242 2.8 248 19.9
2004-05-28 07:54:43 51°8.867 2°33.192 241.6 2.8 245 20
2004-05-28 07:55:43 51°8.848 2°33.124 242.3 2.8 246 19.9
2004-05-28 07:56:42 51°8.83 2°33.055 243.2 2.9 248 20
2004-05-28 07:57:48 51°8.811 2°32.976 245.5 3 256 19.9
2004-05-28 07:58:49 51°8.82 2°32.894 285.8 3.3 299 20.1
2004-05-28 07:59:49 51°8.861 2°32.84 322 2.9 336 20.2
2004-05-28 08:00:48 51°8.902 2°32.82 336.2 2.4 349 20.2
2004-05-28 08:01:48 51°8.939 2°32.812 344.1 2.1 350 20.1
2004-05-28 08:02:48 51°8.97 2°32.804 348 1.8 354 19.6
2004-05-28 08:03:48 51°9.002 2°32.803 4 2.6 5 19.2
2004-05-28 08:04:48 51°9.043 2°32.854 60.9 3.6 54 18.8
2004-05-28 08:05:48 51°9.075 2°32.939 65.9 3.7 62 18.5
2004-05-28 08:06:48 51°9.096 2°33.028 83.2 3.5 77 18.6
2004-05-28 08:07:46 51°9.101 2°33.117 98.1 3.5 91 18.8
2004-05-28 08:08:48 51°9.098 2°33.212 103.6 3.5 96 19.2
2004-05-28 08:09:48 51°9.093 2°33.305 102.8 3.6 92 19.4
2004-05-28 08:10:48 51°9.092 2°33.4 100.9 3.6 91 19.6
2004-05-28 08:11:48 51°9.096 2°33.497 96.1 3.7 82 19.6
2004-05-28 08:12:47 51°9.105 2°33.594 98.9 3.8 84 19.5
2004-05-28 08:13:48 51°9.11 2°33.697 102.8 3.8 84 19.3
2004-05-28 08:14:48 51°9.115 2°33.798 101.9 3.9 85 19.5
2004-05-28 08:15:55 51°9.121 2°33.912 101.3 3.8 85 19.3
2004-05-28 08:16:55 51°9.126 2°34.013 100.5 3.8 88 19.2
2004-05-28 08:17:54 51°9.133 2°34.112 100.3 3.8 84 18.5
2004-05-28 08:19:04 51°9.139 2°34.228 101.3 3.7 86 18.1
2004-05-28 08:20:03 51°9.144 2°34.324 101.4 3.7 86 18.3
2004-05-28 08:21:07 51°9.15 2°34.429 100.6 3.7 85 17.8
2004-05-28 08:22:06 51°9.156 2°34.521 100.2 3.1 83 18.3
2004-05-28 08:23:06 51°9.163 2°34.612 96.6 4.2 84 17.2
2004-05-28 08:24:06 51°9.172 2°34.728 93.9 4.5 82 18.6
2004-05-28 08:25:08 51°9.181 2°34.853 95.7 4.6 84 18
2004-05-28 08:26:08 51°9.186 2°34.974 97.1 4.6 87 18.2
2004-05-28 08:27:06 51°9.191 2°35.091 97 4.6 86 17.3
2004-05-28 08:28:07 51°9.196 2°35.211 97.1 4.1 88 18.1
2004-05-28 08:29:07 51°9.2 2°35.304 98.7 3.2 85 17.4
2004-05-28 08:30:19 51°9.204 2°35.397 97.4 2.8 83 18
2004-05-28 08:31:19 51°9.209 2°35.47 94.6 2.7 85 17.3
2004-05-28 08:32:19 51°9.213 2°35.544 93.7 2.9 83 17.8
2004-05-28 08:33:18 51°9.218 2°35.618 93.1 2.9 84 17.8
2004-05-28 08:34:18 51°9.22 2°35.692 97.5 2.8 91 17.6
2004-05-28 08:35:23 51°9.221 2°35.769 95.7 2.4 88 17.5
2004-05-28 08:36:22 51°9.228 2°35.838 80.3 4.1 69 17.7
2004-05-28 08:37:24 51°9.313 2°35.911 7.2 8.2 3 17.7
2004-05-28 08:38:23 51°9.513 2°35.868 355.2 14 351 17.6
2004-05-28 08:39:24 51°9.751 2°35.811 356.2 14.4 352 19.3
2004-05-28 08:40:34 51°10.031 2°35.758 356.5 14.5 354 17.5
2004-05-28 08:41:34 51°10.269 2°35.782 11.6 14.3 8 11.8
2004-05-28 08:42:34 51°10.507 2°35.83 11 14.5 7 12
2004-05-28 08:43:34 51°10.71 2°36.018 50.7 14.4 48 12.1
2004-05-28 08:44:34 51°10.875 2°36.3 48.8 14.6 44 12.6
2004-05-28 08:45:34 51°11.048 2°36.568 49.8 14.5 44 13.5
2004-05-28 08:46:34 51°11.22 2°36.837 49.7 14.4 44 14.1
2004-05-28 08:47:33 51°11.388 2°37.098 49.8 14.3 44 14.6
2004-05-28 08:48:34 51°11.563 2°37.368 50 14.4 44 14.8
2004-05-28 08:49:34 51°11.727 2°37.644 52.9 14.3 47 14.9
2004-05-28 08:50:33 51°11.886 2°37.921 53.1 14.4 47 14.8
2004-05-28 08:51:34 51°12.051 2°38.207 53.6 14.4 48 14.7
2004-05-28 08:52:34 51°12.212 2°38.489 53.1 14.5 47 14.7
2004-05-28 08:53:44 51°12.402 2°38.819 53.4 14.5 47 14.5
2004-05-28 08:54:42 51°12.56 2°39.091 52.9 14.4 47 14.2
2004-05-28 08:55:44 51°12.728 2°39.381 53 14.5 47 14.3
2004-05-28 08:56:43 51°12.884 2°39.665 55.1 14.4 50 14.8
2004-05-28 08:57:43 51°13.038 2°39.958 55.6 14.5 50 14.9
2004-05-28 08:58:44 51°13.186 2°40.27 59.3 14.5 54 15.1
2004-05-28 08:59:51 51°13.346 2°40.618 59.2 14.5 53 15.5
2004-05-28 09:00:52 51°13.49 2°40.935 59.5 14.5 54 16
2004-05-28 09:01:52 51°13.632 2°41.246 59.3 14.5 54 16.9
2004-05-28 09:02:52 51°13.772 2°41.549 59.3 12.3 54 17.2
2004-05-28 09:03:56 51°13.837 2°41.745 78.3 5.7 71 17.4
2004-05-28 09:04:56 51°13.854 2°41.844 84.2 1.6 76 17.4
2004-05-28 09:06:02 51°13.859 2°41.851 93 0.4 55 6.9
2004-05-28 09:07:01 51°13.862 2°41.864 100.1 1 80 8.1
2004-05-28 09:08:09 51°13.863 2°41.974 97.6 3.6 88 17.1
2004-05-28 09:09:10 51°13.865 2°42.062 95.1 3.1 85 16.9
2004-05-28 09:10:10 51°13.872 2°42.142 88.1 3 78 16.7
2004-05-28 09:11:10 51°13.884 2°42.219 84.2 3 75 16.6
2004-05-28 09:12:10 51°13.896 2°42.295 82.3 3 73 16.6
2004-05-28 09:13:10 51°13.912 2°42.369 77.6 2.9 69 16.5
2004-05-28 09:14:10 51°13.93 2°42.443 76 3 66 16.5
2004-05-28 09:15:10 51°13.947 2°42.516 76.9 3 70 16.4
2004-05-28 09:16:10 51°13.965 2°42.591 78.5 3 72 16.4
2004-05-28 09:17:10 51°13.981 2°42.665 79.8 3 71 14.8
2004-05-28 09:18:10 51°13.996 2°42.739 79.8 2.9 72 16.4
2004-05-28 09:19:10 51°14.011 2°42.813 79.8 2.9 75 16.3
2004-05-28 09:20:10 51°14.026 2°42.887 79.3 2.9 73 16.3
2004-05-28 09:21:10 51°14.042 2°42.96 75.6 2.9 68 16.2
2004-05-28 09:22:10 51°14.063 2°43.03 70.9 2.9 63 16.2
2004-05-28 09:23:10 51°14.084 2°43.098 69.2 2.8 62 16.3
2004-05-28 09:24:10 51°14.105 2°43.166 71.4 2.8 65 16.3
2004-05-28 09:25:18 51°14.128 2°43.243 71.5 2.9 66 16.3
2004-05-28 09:26:18 51°14.149 2°43.313 71.7 2.9 65 16.2
2004-05-28 09:27:18 51°14.169 2°43.383 73.2 2.9 66 16.1
2004-05-28 09:28:22 51°14.19 2°43.458 71.5 3 67 16
2004-05-28 09:29:22 51°14.214 2°43.53 64.7 3.2 59 15.9
2004-05-28 09:30:22 51°14.244 2°43.603 61.5 3.4 58 15.8
2004-05-28 09:31:22 51°14.276 2°43.678 61.1 3.4 55 15.8
2004-05-28 09:32:23 51°14.309 2°43.755 62.4 3.4 59 15.7
2004-05-28 09:33:23 51°14.339 2°43.832 64.5 3.4 60 15.8
2004-05-28 09:34:23 51°14.367 2°43.91 65 3.4 59 15.6
2004-05-28 09:35:23 51°14.397 2°43.987 64.7 3.4 59 15.3
2004-05-28 09:36:22 51°14.423 2°44.061 67 3.2 60 15.4
2004-05-28 09:37:22 51°14.449 2°44.128 62.3 2.6 54 15.4
2004-05-28 09:38:23 51°14.473 2°44.177 55.4 2.1 46 15.3
2004-05-28 09:39:23 51°14.495 2°44.215 54.1 2.1 45 15.5
2004-05-28 09:40:22 51°14.571 2°44.232 345.9 5.1 341 16
2004-05-28 09:41:22 51°14.647 2°44.181 341.5 4.5 337 16.8
2004-05-28 09:42:27 51°14.715 2°44.152 8.5 3.5 3 16.9
2004-05-28 09:43:30 51°14.769 2°44.185 41.7 3.2 37 17
2004-05-28 09:44:30 51°14.79 2°44.251 93.2 2.7 87 17
2004-05-28 09:45:29 51°14.773 2°44.322 132.9 3.1 125 16.7
2004-05-28 09:46:37 51°14.725 2°44.381 154.5 3.3 151 16.3
2004-05-28 09:47:36 51°14.672 2°44.402 176.6 3.4 174 14.6
2004-05-28 09:48:36 51°14.615 2°44.397 190.5 3.5 191 15.7
2004-05-28 09:49:36 51°14.562 2°44.359 215.6 3.5 216 15.4
2004-05-28 09:50:36 51°14.52 2°44.294 229.2 3.6 230 15.4
2004-05-28 09:51:36 51°14.483 2°44.221 234.9 3.5 234 15.2
2004-05-28 09:52:36 51°14.45 2°44.144 235.7 3.6 234 15.2
2004-05-28 09:53:36 51°14.414 2°44.069 232.1 3.5 229 15.1
2004-05-28 09:54:36 51°14.378 2°43.995 236.3 3.6 236 15.2
2004-05-28 09:55:36 51°14.348 2°43.914 242.1 3.5 241 15.3
2004-05-28 09:56:36 51°14.319 2°43.833 242.9 3.5 241 15.4
2004-05-28 09:57:36 51°14.29 2°43.752 240.8 3.6 240 15.4
2004-05-28 09:58:35 51°14.26 2°43.673 239.7 3.5 239 15.4
2004-05-28 09:59:35 51°14.229 2°43.592 239.5 3.6 238 15.4
2004-05-28 10:00:36 51°14.197 2°43.511 238.9 3.6 236 15.4
2004-05-28 10:01:36 51°14.166 2°43.43 239.3 3.6 239 15.5
2004-05-28 10:02:37 51°14.134 2°43.347 239.2 3.6 237 15.5
2004-05-28 10:03:39 51°14.101 2°43.262 239.7 3.6 238 15.6
2004-05-28 10:04:39 51°14.073 2°43.177 247 3.7 247 15.6
2004-05-28 10:05:51 51°14.052 2°43.064 258.2 3.7 258 15.7
2004-05-28 10:06:52 51°14.038 2°42.967 257.6 3.7 256 15.8
2004-05-28 10:07:56 51°14.02 2°42.867 255.4 3.7 255 15.9
2004-05-28 10:08:55 51°14.004 2°42.773 254 3.8 256 15.9
2004-05-28 10:10:19 51°13.978 2°42.64 254.1 3.8 253 15.8
2004-05-28 10:11:43 51°13.957 2°42.521 258.5 2.7 254 15.9
2004-05-28 10:12:55 51°13.944 2°42.441 261.1 2.6 256 15.9
2004-05-28 10:13:55 51°13.95 2°42.323 291.7 7.4 289 16
2004-05-28 10:14:55 51°14.023 2°42.108 306.3 10 302 16.8
2004-05-28 10:15:56 51°14.117 2°41.853 305.6 12.9 301 17.4
2004-05-28 10:16:56 51°14.236 2°41.538 305.2 14.1 301 16
2004-05-28 10:17:55 51°14.355 2°41.222 306 14.2 301 14.8
2004-05-28 10:18:55 51°14.477 2°40.897 304.1 14.2 299 13.9
2004-05-28 10:19:55 51°14.593 2°40.566 304.1 14.2 300 13.2
2004-05-28 10:20:56 51°14.712 2°40.232 304.7 14.3 300 13.1
2004-05-28 10:21:56 51°14.828 2°39.899 304.4 14.5 300 13.9
2004-05-28 10:22:55 51°14.944 2°39.572 304 14.3 299 15.4
2004-05-28 10:23:55 51°15.061 2°39.243 305.1 14.3 300 17.6
2004-05-28 10:24:54 51°15.175 2°38.919 304.5 14.2 299 18.2
2004-05-28 10:25:57 51°15.298 2°38.574 305.3 14.3 299 16.3
2004-05-28 10:27:00 51°15.423 2°38.234 305.1 14 300 11.9
2004-05-28 10:28:00 51°15.54 2°37.91 305.2 14.3 300 10.7
2004-05-28 10:29:02 51°15.665 2°37.573 306.2 14.3 301 10.6
2004-05-28 10:30:04 51°15.81 2°37.257 314.2 14.4 310 11.6
2004-05-28 10:31:04 51°16.005 2°37.046 343.3 14.3 339 17.1
2004-05-28 10:32:02 51°16.221 2°36.925 346.4 14.2 340 25.8
2004-05-28 10:33:04 51°16.368 2°36.715 292.1 8.2 285 25.9
2004-05-28 10:34:04 51°16.352 2°36.585 240.4 3.7 241 27.5
2004-05-28 10:35:04 51°16.328 2°36.532 226.4 1.6 231 27.8
2004-05-28 10:36:03 51°16.314 2°36.5 223.9 1.4 232 27.8
2004-05-28 10:37:03 51°16.299 2°36.47 219.3 2 224 28
2004-05-28 10:38:03 51°16.253 2°36.416 214.4 3.7 214 27.8
2004-05-28 10:39:03 51°16.208 2°36.36 217.3 3.2 218 26.7
2004-05-28 10:40:04 51°16.167 2°36.308 216.8 3 219 26.7
2004-05-28 10:41:03 51°16.128 2°36.259 215.5 3 219 26.5
2004-05-28 10:42:04 51°16.087 2°36.21 215.3 3.1 219 26.5
2004-05-28 10:43:04 51°16.047 2°36.16 215.1 3.1 218 26.7
2004-05-28 10:44:02 51°16.008 2°36.112 215.3 3.1 218 26.6
2004-05-28 10:45:04 51°15.966 2°36.061 215.5 3.1 218 26.9
2004-05-28 10:46:04 51°15.926 2°36.009 215.4 3.1 218 27.4
2004-05-28 10:47:03 51°15.887 2°35.96 215.4 3.1 220 27.2
2004-05-28 10:48:34 51°15.825 2°35.883 215.2 3.1 218 26.7
2004-05-28 10:50:02 51°15.764 2°35.806 215.9 3.2 221 26.8
2004-05-28 10:51:06 51°15.721 2°35.749 215.2 3.2 218 27
2004-05-28 10:52:06 51°15.678 2°35.695 215.7 3.3 220 27.7
2004-05-28 10:53:06 51°15.636 2°35.638 215.7 3.3 218 26.7
2004-05-28 10:54:06 51°15.592 2°35.582 215.2 3.4 218 25.9
2004-05-28 10:55:06 51°15.548 2°35.526 214.8 3.4 218 26.5
2004-05-28 10:56:10 51°15.502 2°35.466 215.7 3.4 220 26.5
2004-05-28 10:57:11 51°15.458 2°35.41 215.5 3.4 220 26.1
2004-05-28 10:58:11 51°15.414 2°35.353 215 3.4 220 25.9
2004-05-28 10:59:18 51°15.364 2°35.29 215.1 3.4 220 26.2
2004-05-28 11:00:18 51°15.32 2°35.233 215.5 3.4 219 26.1
2004-05-28 11:01:16 51°15.278 2°35.178 214.8 3.4 219 26.2
2004-05-28 11:02:18 51°15.232 2°35.121 213.5 3.4 218 26.3
2004-05-28 11:03:18 51°15.187 2°35.066 214.6 3.4 217 26
2004-05-28 11:04:18 51°15.143 2°35.009 216.5 3.4 219 26.3
2004-05-28 11:05:18 51°15.1 2°34.951 217.3 3.3 220 26.3
2004-05-28 11:06:18 51°15.067 2°34.888 236.8 2.8 240 26.2
2004-05-28 11:07:18 51°15.05 2°34.822 258.8 2.7 253 26.2
2004-05-28 11:08:18 51°15.047 2°34.745 284.4 3.1 276 26.6
2004-05-28 11:09:25 51°15.072 2°34.669 331.8 2.7 315 26.8
2004-05-28 11:10:25 51°15.107 2°34.642 15.1 2.2 356 26.5
2004-05-28 11:11:24 51°15.145 2°34.662 41.5 2.8 28 26.4
2004-05-28 11:12:30 51°15.19 2°34.71 46.3 2.9 35 26
2004-05-28 11:13:30 51°15.227 2°34.752 45.7 2.6 35 26.4
2004-05-28 11:14:30 51°15.264 2°34.789 42.9 2.6 31 26.1
2004-05-28 11:15:30 51°15.299 2°34.824 43.6 2.5 31 26.1
2004-05-28 11:16:30 51°15.334 2°34.861 47.4 2.4 37 25.8
2004-05-28 11:17:30 51°15.365 2°34.903 56.2 2.4 48 26.1
2004-05-28 11:18:30 51°15.387 2°34.953 63.8 2.4 54 26.2
2004-05-28 11:19:30 51°15.408 2°35.005 64.4 2.3 56 26.2
2004-05-28 11:20:34 51°15.433 2°35.06 60.9 2.4 53 26.1
2004-05-28 11:21:34 51°15.457 2°35.111 60.3 2.4 54 26
2004-05-28 11:22:34 51°15.481 2°35.16 59.9 2.4 54 26.2
2004-05-28 11:23:34 51°15.504 2°35.21 59.3 2.4 53 26.2
2004-05-28 11:24:34 51°15.529 2°35.259 59 2.4 52 26
2004-05-28 11:25:34 51°15.554 2°35.307 59.5 2.4 50 26
2004-05-28 11:26:34 51°15.577 2°35.357 59.7 2.4 52 25.9
2004-05-28 11:27:34 51°15.6 2°35.406 59.9 2.3 52 26.3
2004-05-28 11:28:33 51°15.623 2°35.453 59.5 2.3 53 26.6
2004-05-28 11:29:34 51°15.648 2°35.502 58 2.3 51 26.8
2004-05-28 11:30:34 51°15.672 2°35.549 57.8 2.3 51 26.6
2004-05-28 11:31:32 51°15.696 2°35.595 58.9 2.3 53 26.5
2004-05-28 11:32:34 51°15.72 2°35.645 60 2.3 56 26
2004-05-28 11:33:34 51°15.742 2°35.694 60.3 2.3 54 26.8
2004-05-28 11:34:34 51°15.763 2°35.743 60.5 2.2 56 26.6
2004-05-28 11:35:34 51°15.785 2°35.791 59.6 2.2 55 26.8
2004-05-28 11:36:34 51°15.807 2°35.839 58.8 2.3 55 26.6
2004-05-28 11:37:34 51°15.829 2°35.885 58.9 2.2 52 26.3
2004-05-28 11:38:34 51°15.851 2°35.932 58.7 2.2 52 26.3
2004-05-28 11:39:39 51°15.874 2°35.982 59.7 2 55 26.5
2004-05-28 11:40:39 51°15.889 2°36.013 59.5 1.3 52 26.9
2004-05-28 11:41:42 51°15.944 2°36.111 52.7 9.7 47 26.3
2004-05-28 11:42:44 51°16.064 2°36.377 62.3 13 57 51.5
2004-05-28 11:43:44 51°16.18 2°36.67 63.1 13.1 59 52.7
2004-05-28 11:44:44 51°16.292 2°36.969 64.9 13.1 60 51.5
2004-05-28 11:45:43 51°16.385 2°37.276 70.7 13.1 66 52.8
2004-05-28 11:46:44 51°16.479 2°37.596 70.4 13.1 65 53.7
2004-05-28 11:47:44 51°16.572 2°37.909 70.6 13.1 65 49
2004-05-28 11:48:43 51°16.665 2°38.213 69.6 13 64 47.5
2004-05-28 11:49:44 51°16.766 2°38.509 69.9 12.4 63 42.9
2004-05-28 11:50:44 51°16.854 2°38.813 72.2 12.7 66 40.3
2004-05-28 11:51:44 51°16.918 2°39.139 78.7 13.1 73 48.7
2004-05-28 11:52:44 51°16.982 2°39.474 79.2 13.1 74 12
2004-05-28 11:53:44 51°17.044 2°39.808 79 13.2 73 53.5
2004-05-28 11:54:44 51°17.108 2°40.14 78.8 13.2 73 17.3
2004-05-28 11:55:43 51°17.171 2°40.469 78.2 13.2 74 51.7
2004-05-28 11:56:44 51°17.233 2°40.811 78.9 13.1 74 47
2004-05-28 11:57:44 51°17.295 2°41.146 77.6 13.2 73 44.8
2004-05-28 11:58:44 51°17.359 2°41.482 78.4 13.1 74 45.4
2004-05-28 11:59:44 51°17.42 2°41.816 77.7 13.1 73 48.5
2004-05-28 12:00:44 51°17.479 2°42.152 78.3 13.2 74 45.5
2004-05-28 12:01:44 51°17.54 2°42.484 76.9 13 72 47.9
2004-05-28 12:02:44 51°17.603 2°42.809 78.2 12.8 73 46.7
2004-05-28 12:03:44 51°17.668 2°43.129 78.3 12.6 72 51.9
2004-05-28 12:04:47 51°17.736 2°43.464 79.1 12.6 73 48.5
2004-05-28 12:05:48 51°17.802 2°43.792 78.5 12.7 72 47.1
2004-05-28 12:06:48 51°17.863 2°44.106 78.9 10.4 73 50
2004-05-28 12:07:48 51°17.874 2°44.231 76.5 1.7 73 44.1
2004-05-28 12:08:48 51°17.874 2°44.238 72.5   160 52.1
2004-05-28 12:09:48 51°17.872 2°44.239 72.2 0.5 74 15.6
2004-05-28 12:10:48 51°17.893 2°44.298 66.5 2.9 62 17
2004-05-28 12:11:48 51°17.91 2°44.36 72.4 2.4 70 17.5
2004-05-28 12:12:48 51°17.925 2°44.418 71.4 2.3 66 16.8
2004-05-28 12:13:48 51°17.94 2°44.472 69.5 2.3 68 17.4
2004-05-28 12:14:48 51°17.957 2°44.524 67.4 2.2 58 17.5
2004-05-28 12:15:48 51°17.975 2°44.575 66.9 2.3 61 18.1
2004-05-28 12:16:48 51°17.993 2°44.628 67.4 2.2 59 18.1
2004-05-28 12:17:48 51°18.011 2°44.68 66.5 2.3 60 18.2
2004-05-28 12:18:48 51°18.03 2°44.732 66.2 2.3 63 18.1
2004-05-28 12:19:48 51°18.048 2°44.787 67.8 2.4 61 18.1
2004-05-28 12:20:48 51°18.067 2°44.845 68.2 2.5 64 18.7
2004-05-28 12:21:48 51°18.085 2°44.903 67.5 2.5 65 18.9
2004-05-28 12:22:47 51°18.104 2°44.96 66.7 2.4 61 19
2004-05-28 12:23:48 51°18.123 2°45.019 67.4 2.4 63 19.2
2004-05-28 12:24:48 51°18.14 2°45.076 67.5 2.4 63 19.3
2004-05-28 12:25:48 51°18.158 2°45.132 67.4 2.4 63 19.2
2004-05-28 12:26:48 51°18.174 2°45.189 68.4 2.3 67 19.4
2004-05-28 12:27:48 51°18.19 2°45.246 67.4 2.3 66 19.3
2004-05-28 12:28:48 51°18.206 2°45.3 66.2 2.3 66 19.5
2004-05-28 12:29:48 51°18.223 2°45.355 66.8 2.3 64 19.4
2004-05-28 12:30:48 51°18.238 2°45.411 67.3 2.3 70 19.7
2004-05-28 12:31:48 51°18.253 2°45.466 67.3 2.3 67 19.7
2004-05-28 12:32:48 51°18.268 2°45.523 66.7 2.3 66 19.6
2004-05-28 12:33:48 51°18.285 2°45.575 66.2 2.2 68 19.7
2004-05-28 12:34:47 51°18.3 2°45.627 67.4 2.2 67 19.6
2004-05-28 12:35:48 51°18.315 2°45.681 68.2 2.2 68 19.4
2004-05-28 12:36:48 51°18.33 2°45.732 66.5 2.1 65 19.3
2004-05-28 12:37:48 51°18.344 2°45.784 67.8 2.2 67 19.4
2004-05-28 12:38:48 51°18.357 2°45.837 68.8 2.2 69 19.1
2004-05-28 12:39:48 51°18.371 2°45.889 68.1 2 70 19.1
2004-05-28 12:40:48 51°18.382 2°45.939 68.2 1.9 70 19
2004-05-28 12:41:48 51°18.388 2°45.97 71.9 0.9 87 19
2004-05-28 12:42:48 51°18.384 2°45.984 84.4 0.7 149 19.1
2004-05-28 12:43:48 51°18.37 2°46.005 104.7 2.7 120 19
2004-05-28 12:44:47 51°18.335 2°46.074 111.3 3.3 128 18.3
2004-05-28 12:45:48 51°18.305 2°46.138 106.6 2.8 126 17.7
2004-05-28 12:46:48 51°18.279 2°46.196 103.6 2.7 127 17.6
2004-05-28 12:47:48 51°18.257 2°46.254 100.7 2.6 122 17.1
2004-05-28 12:48:48 51°18.235 2°46.313 101.7 2.7 120 49.3
2004-05-28 12:49:48 51°18.211 2°46.374 102.9 2.8 124 38.8
2004-05-28 12:50:48 51°18.189 2°46.437 99.6 2.7 119 52.4
2004-05-28 12:51:48 51°18.171 2°46.499 97.2 2.6 113 41.6
2004-05-28 12:52:48 51°18.153 2°46.563 97 2.7 115 51.2
2004-05-28 12:53:54 51°18.134 2°46.634 97.8 2.7 114 50.5
2004-05-28 12:54:54 51°18.117 2°46.697 97.8 2.7 115 44.3
2004-05-28 12:55:54 51°18.1 2°46.76 99.4 2.6 116 43.8
2004-05-28 12:56:54 51°18.081 2°46.822 99 2.6 115 47.9
2004-05-28 12:57:54 51°18.064 2°46.885 98.7 2.6 115 53.2
2004-05-28 12:58:54 51°18.046 2°46.947 97.5 2.6 112 40
2004-05-28 12:59:53 51°18.03 2°47.011 97.5 2.7 114 40.7
2004-05-28 13:00:54 51°18.012 2°47.078 98.2 2.7 113 33.8
2004-05-28 13:01:53 51°17.995 2°47.143 98.7 2.6 112 46.9
2004-05-28 13:02:51 51°17.977 2°47.207 98.9 2.7 114 33.4
2004-05-28 13:03:54 51°17.959 2°47.274 97.9 2.7 115 46.5
2004-05-28 13:04:54 51°17.941 2°47.338 99.2 2.7 116 51.2
2004-05-28 13:05:53 51°17.923 2°47.401 99.3 2.7 114 51.1
2004-05-28 13:06:54 51°17.904 2°47.467 98.1 2.7 116 32.7
2004-05-28 13:07:54 51°17.887 2°47.532 97.9 2.7 111 38.3
2004-05-28 13:08:54 51°17.869 2°47.598 99 2.7 114 29
2004-05-28 13:09:54 51°17.852 2°47.664 98.3 2.7 111 40.3
2004-05-28 13:10:54 51°17.834 2°47.729 98.4 2.6 112 49.5
2004-05-28 13:11:54 51°17.816 2°47.793 98.5 2.7 112 43.7
2004-05-28 13:12:54 51°17.798 2°47.859 97.9 2.6 112 9.9
2004-05-28 13:13:54 51°17.781 2°47.925 98.1 2.7 115 9.3
2004-05-28 13:14:54 51°17.763 2°47.99 99.4 2.7 115 9.2
2004-05-28 13:15:54 51°17.742 2°48.054 101.6 2.8 120 9.5
2004-05-28 13:16:54 51°17.719 2°48.099 110.8 1.8 141 9.6
2004-05-28 13:17:54 51°17.692 2°48.123 118.2 1.9 153 9.6
2004-05-28 13:18:54 51°17.658 2°48.163 121.4 2.7 143 9.7
2004-05-28 13:19:54 51°17.624 2°48.199 122.1 2.3 147 9.6
2004-05-28 13:20:54 51°17.554 2°48.32 128.3 11 130 9.2
2004-05-28 13:21:54 51°17.421 2°48.572 127.6 12.8 130 9.6
2004-05-28 13:22:54 51°17.269 2°48.84 130.9 13.4 135 -999
2004-05-28 13:23:54 51°17.114 2°49.107 131.7 13.7 134 53.1
2004-05-28 13:24:54 51°16.961 2°49.376 131 13.3 134 36.8
2004-05-28 13:25:54 51°16.807 2°49.641 130.7 14 131 53.3
2004-05-28 13:26:54 51°16.648 2°49.917 132.2 14 134 12.6
2004-05-28 13:27:59 51°16.483 2°50.21 131.3 13.8 132 10.1
2004-05-28 13:28:58 51°16.334 2°50.468 132.3 13 133 8.1
2004-05-28 13:29:59 51°16.189 2°50.742 127.9 13.8 131 9.6
2004-05-28 13:30:59 51°16.032 2°51.012 130.6 14 131 12.1
2004-05-28 13:31:58 51°15.892 2°51.287 126.4 13.5 127 12.3
2004-05-28 13:32:59 51°15.759 2°51.578 123.5 13.4 126 12.1
2004-05-28 13:33:59 51°15.631 2°51.865 124.2 13.2 126 11.9
2004-05-28 13:34:58 51°15.503 2°52.145 123.3 13.2 127 11.4
2004-05-28 13:35:59 51°15.369 2°52.436 125.6 13.4 127 10.8
2004-05-28 13:36:59 51°15.234 2°52.717 126.2 13.3 127 10.3
2004-05-28 13:37:59 51°15.104 2°53.001 123.8 13.3 124 9.5
2004-05-28 13:38:59 51°14.978 2°53.291 123.1 13.3 125 9.3
2004-05-28 13:40:03 51°14.844 2°53.604 123.1 13.5 122 9.1
2004-05-28 13:41:08 51°14.71 2°53.925 121.9 13.4 121 9.8
2004-05-28 13:42:11 51°14.578 2°54.237 124 13.2 122 10.2
2004-05-28 13:43:23 51°14.488 2°54.624 105.7 12.8 103 10
2004-05-28 13:44:23 51°14.407 2°54.928 118.2 12.4 117 10
2004-05-28 13:45:22 51°14.298 2°55.209 128.9 12.2 126 10.8
2004-05-28 13:46:22 51°14.188 2°55.374 149.8 7.3 147 10.8
2004-05-28 13:47:23 51°14.094 2°55.464 155 6 152 10.8
2004-05-28 13:48:23 51°13.989 2°55.526 164.9 7.5 161 10.7
2004-05-28 13:49:23 51°13.865 2°55.595 164.3 7.9 160 8.9
2004-05-28 13:50:23 51°13.754 2°55.674 155.5 6.6 151 10.1
2004-05-28 13:51:23 51°13.686 2°55.789 131.2 5.8 126 12
2004-05-28 13:52:23 51°13.635 2°55.92 121.6 5.1 121 9
2004-05-28 13:53:23 51°13.608 2°56.023 105.2 3.6 103 8.3
2004-05-28 13:54:23 51°13.597 2°56.093 116.7 1.7 118 6.5
2004-05-28 13:55:23 51°13.595 2°56.096 133.3 0.1 196 6.4
2004-05-28 13:56:23 51°13.595 2°56.097 130.4 0.1 42 -999
2004-05-28 13:57:23 51°13.596 2°56.097 129.5 0.2 135 6.3
2004-05-28 13:58:23 51°13.596 2°56.098 126.2   260 6.2